Time;durP1;ratioP1;P1;durP2;ratioP2;P2;SDS_P1;SDS_P2;PMS_P1;PMS_P2;Temp;Humidity;BMP_temperature;BMP_pressure;BME280_temperature;BME280_humidity;BME280_pressure;Samples;Min_cycle;Max_cycle;Signal;HPM_P1;HPM_P2
2021/04/08 00:00:24;;;;;;;9.90;5.78;;;;;;;0.30;74.10;98590.63;1753532;80;21240;-65
2021/04/08 00:02:53;;;;;;;9.98;5.97;;;;;;;0.33;74.11;98585.42;1741714;80;21180;-65
2021/04/08 00:05:20;;;;;;;8.55;5.85;;;;;;;0.36;74.12;98587.91;1759423;80;21214;-65
2021/04/08 00:07:47;;;;;;;8.55;5.65;;;;;;;0.42;74.18;98601.47;1758650;80;21704;-65
2021/04/08 00:10:15;;;;;;;11.38;6.33;;;;;;;0.46;74.20;98609.94;1755546;80;21782;-65
2021/04/08 00:12:42;;;;;;;9.43;5.53;;;;;;;0.48;74.18;98604.33;1759122;80;21000;-65
2021/04/08 00:15:14;;;;;;;7.30;5.33;;;;;;;0.51;74.29;98610.67;1755232;80;21191;-66
2021/04/08 00:17:42;;;;;;;8.95;5.67;;;;;;;0.52;74.32;98605.92;1778396;79;20981;-65
2021/04/08 00:20:19;;;;;;;10.38;6.30;;;;;;;0.54;74.32;98609.31;1784047;79;20989;-65
2021/04/08 00:22:46;;;;;;;8.78;5.80;;;;;;;0.56;74.32;98610.12;1781639;79;21247;-65
2021/04/08 00:25:14;;;;;;;7.75;5.65;;;;;;;0.59;74.39;98608.77;1781163;78;21061;-65
2021/04/08 00:27:43;;;;;;;9.53;5.53;;;;;;;0.61;74.33;98608.26;1751616;80;21164;-65
2021/04/08 00:30:14;;;;;;;9.53;5.65;;;;;;;0.64;74.44;98613.77;1757024;80;21193;-65
2021/04/08 00:32:41;;;;;;;9.73;6.08;;;;;;;0.67;74.41;98607.27;1779796;79;21236;-65
2021/04/08 00:35:10;;;;;;;8.48;5.72;;;;;;;0.65;74.43;98608.60;1787696;79;21413;-65
2021/04/08 00:37:37;;;;;;;8.70;5.60;;;;;;;0.66;74.47;98614.13;1757360;80;21174;-65
2021/04/08 00:40:14;;;;;;;7.37;5.95;;;;;;;0.68;74.56;98617.12;1749249;80;21156;-65
2021/04/08 00:42:44;;;;;;;7.27;5.33;;;;;;;0.66;74.53;98615.41;1757260;80;21210;-65
2021/04/08 00:45:16;;;;;;;7.12;5.22;;;;;;;0.70;74.63;98623.05;1748387;80;21221;-66
2021/04/08 00:47:44;;;;;;;10.15;5.35;;;;;;;0.72;74.66;98623.41;1756228;80;21279;-65
2021/04/08 00:50:13;;;;;;;7.08;5.35;;;;;;;0.74;74.73;98632.38;1777311;79;21184;-65
2021/04/08 00:52:43;;;;;;;7.87;5.40;;;;;;;0.74;74.72;98632.38;1776475;79;21820;-65
2021/04/08 00:55:12;;;;;;;9.18;5.87;;;;;;;0.76;74.69;98640.91;1781026;79;21887;-65
2021/04/08 00:57:39;;;;;;;8.23;5.95;;;;;;;0.78;74.80;98644.25;1751524;80;21163;-65
2021/04/08 01:00:08;;;;;;;11.05;6.28;;;;;;;0.82;74.81;98647.17;1739349;81;21238;-65
2021/04/08 01:02:36;;;;;;;8.45;6.10;;;;;;;0.85;74.78;98650.94;1753807;80;21191;-65
2021/04/08 01:05:06;;;;;;;6.40;5.42;;;;;;;0.86;74.79;98652.62;1778994;79;21593;-65
2021/04/08 01:07:33;;;;;;;11.22;6.55;;;;;;;0.85;74.80;98650.94;1745776;80;21137;-66
2021/04/08 01:10:01;;;;;;;;;;;;;;;0.84;74.82;98651.80;1763648;79;21585;-65
2021/04/08 01:12:27;;;;;;;;;;;;;;;0.86;75.00;98652.62;1761243;79;21406;-65
2021/04/08 01:14:56;;;;;;;8.43;6.50;;;;;;;0.85;74.96;98653.52;1755791;79;20307;-65
2021/04/08 01:17:29;;;;;;;8.95;5.95;;;;;;;0.82;74.94;98656.16;1762012;79;21216;-65
2021/04/08 01:20:35;;;;;;;8.63;6.28;;;;;;;0.80;75.06;98656.19;1753959;79;21077;-65
2021/04/08 01:23:52;;;;;;;8.63;6.40;;;;;;;0.80;74.99;98656.63;1659533;84;21322;-65
2021/04/08 01:26:44;;;;;;;9.95;6.33;;;;;;;0.81;75.07;98661.75;1637528;85;21674;-66
2021/04/08 01:29:41;;;;;;;10.68;7.05;;;;;;;0.83;75.16;98665.55;1634938;86;21186;-65
2021/04/08 01:32:10;;;;;;;8.43;6.45;;;;;;;0.84;75.10;98660.38;1634613;86;21231;-65
2021/04/08 01:34:43;;;;;;;8.30;6.15;;;;;;;0.87;75.25;98663.33;1652739;85;21233;-65
2021/04/08 01:37:12;;;;;;;11.63;6.72;;;;;;;0.86;75.20;98661.16;1652588;85;21247;-65
2021/04/08 01:39:41;;;;;;;13.65;7.75;;;;;;;0.86;75.24;98670.61;1652188;85;21462;-65
2021/04/08 01:42:10;;;;;;;11.50;7.65;;;;;;;0.87;75.28;98669.75;1652445;85;21234;-66
2021/04/08 01:44:39;;;;;;;11.03;7.40;;;;;;;0.89;75.28;98670.53;1653984;85;21187;-65
2021/04/08 01:47:10;;;;;;;10.85;7.97;;;;;;;0.90;75.37;98672.23;1652320;85;21180;-65
2021/04/08 01:49:40;;;;;;;11.05;7.85;;;;;;;0.91;75.35;98678.22;1652869;85;21258;-65
2021/04/08 01:52:11;;;;;;;10.28;7.70;;;;;;;0.89;75.28;98680.81;1656553;85;22603;-66
2021/04/08 01:54:40;;;;;;;11.70;7.75;;;;;;;0.90;75.40;98669.67;1657656;84;21618;-65
2021/04/08 01:57:10;;;;;;;10.78;7.53;;;;;;;0.92;75.43;98673.47;1651639;85;21190;-65
2021/04/08 01:59:38;;;;;;;12.30;7.50;;;;;;;0.92;75.42;98671.73;1653382;85;21634;-65
2021/04/08 02:02:05;;;;;;;10.58;7.67;;;;;;;0.92;75.51;98674.75;1654140;85;21222;-65
2021/04/08 02:04:35;;;;;;;12.80;6.92;;;;;;;0.87;75.55;98683.44;1657757;84;21222;-65
2021/04/08 02:07:03;;;;;;;11.20;7.08;;;;;;;0.84;75.57;98682.64;1639373;85;21650;-66
2021/04/08 02:09:32;;;;;;;11.93;7.95;;;;;;;0.84;75.58;98682.64;1631088;86;21256;-65
2021/04/08 02:12:00;;;;;;;13.00;7.90;;;;;;;0.86;75.69;98678.31;1649267;85;21667;-65
2021/04/08 02:14:29;;;;;;;11.90;8.55;;;;;;;0.83;75.66;98689.96;1649282;85;21223;-65
2021/04/08 02:16:58;;;;;;;10.55;7.62;;;;;;;0.81;75.68;98686.58;1634048;86;21299;-65
2021/04/08 02:19:26;;;;;;;11.38;7.47;;;;;;;0.81;75.69;98684.00;1645238;85;21668;-65
2021/04/08 02:21:56;;;;;;;9.90;7.85;;;;;;;0.77;75.68;98687.55;1644126;85;21231;-65
2021/04/08 02:24:26;;;;;;;11.05;8.33;;;;;;;0.74;75.75;98683.77;1631476;86;21259;-65
2021/04/08 02:26:55;;;;;;;11.15;8.15;;;;;;;0.69;75.66;98681.30;1641094;85;21036;-65
2021/04/08 02:29:22;;;;;;;14.47;8.85;;;;;;;0.64;75.82;98687.85;1657922;85;21666;-65
2021/04/08 02:31:51;;;;;;;11.85;8.68;;;;;;;0.61;75.87;98691.75;1649047;84;21830;-65
2021/04/08 02:34:19;;;;;;;13.38;8.25;;;;;;;0.54;75.90;98690.22;1650819;84;21223;-65
2021/04/08 02:36:46;;;;;;;11.65;8.60;;;;;;;0.47;75.95;98693.80;1631004;86;26437;-65
2021/04/08 02:39:13;;;;;;;13.55;8.48;;;;;;;0.40;76.06;98694.83;1655109;85;21605;-65
2021/04/08 02:41:42;;;;;;;12.43;9.28;;;;;;;0.36;76.16;98701.73;1653374;85;21239;-66
2021/04/08 02:44:10;;;;;;;11.25;8.88;;;;;;;0.36;76.24;98706.03;1656929;85;21182;-65
2021/04/08 02:46:37;;;;;;;12.28;8.80;;;;;;;0.35;76.33;98706.92;1653985;85;21175;-65
2021/04/08 02:49:04;;;;;;;15.28;8.90;;;;;;;0.34;76.49;98702.68;1651725;85;21296;-65
2021/04/08 02:51:43;;;;;;;13.83;8.65;;;;;;;0.36;76.52;98711.17;1635547;86;21590;-65
2021/04/08 02:54:21;;;;;;;10.32;7.87;;;;;;;0.39;76.58;98713.66;1638568;86;21493;-65
2021/04/08 02:56:54;;;;;;;10.10;8.25;;;;;;;0.41;76.61;98714.48;1640063;85;21264;-65
2021/04/08 02:59:29;;;;;;;11.85;8.48;;;;;;;0.47;76.74;98716.91;1638203;85;21171;-65
2021/04/08 03:02:16;;;;;;;12.73;8.60;;;;;;;0.51;76.71;98715.98;1642504;85;21206;-64
2021/04/08 03:04:50;;;;;;;9.83;7.45;;;;;;;0.55;76.74;98724.00;1624751;86;21170;-66
2021/04/08 03:07:22;;;;;;;13.85;10.55;;;;;;;0.60;76.71;98720.90;1641825;85;21239;-65
2021/04/08 03:09:52;;;;;;;21.05;16.20;;;;;;;0.64;76.81;98725.10;1645644;85;22471;-66
2021/04/08 03:12:21;;;;;;;14.87;10.05;;;;;;;0.69;76.73;98717.71;1643390;85;21548;-65
2021/04/08 03:14:52;;;;;;;10.60;8.13;;;;;;;0.73;76.71;98724.45;1645788;85;21250;-65
2021/04/08 03:17:31;;;;;;;13.05;8.50;;;;;;;0.71;76.69;98727.52;1633888;85;21222;-65
2021/04/08 03:20:01;;;;;;;12.33;8.20;;;;;;;0.68;76.62;98727.59;1645543;85;21131;-65
2021/04/08 03:22:30;;;;;;;12.93;8.20;;;;;;;0.62;76.63;98731.98;1637242;86;21265;-65
2021/04/08 03:24:57;;;;;;;11.35;7.70;;;;;;;0.58;76.63;98740.62;1637806;85;21144;-65
2021/04/08 03:27:27;;;;;;;10.32;7.83;;;;;;;0.54;76.78;98737.73;1648373;85;21569;-65
2021/04/08 03:29:56;;;;;;;11.68;8.55;;;;;;;0.52;76.88;98748.48;1648351;85;21209;-65
2021/04/08 03:32:25;;;;;;;12.18;9.13;;;;;;;0.50;76.85;98750.23;1659903;84;21261;-65
2021/04/08 03:34:55;;;;;;;13.28;8.95;;;;;;;0.50;77.00;98745.09;1640129;86;21091;-66
2021/04/08 03:37:22;;;;;;;10.15;8.40;;;;;;;0.52;77.00;98751.05;1625044;86;21092;-64
2021/04/08 03:39:50;;;;;;;15.45;9.23;;;;;;;0.55;77.11;98761.25;1626293;86;21161;-65
2021/04/08 03:42:20;;;;;;;;;;;;;;;0.61;77.26;98763.67;1623174;86;21581;-65
2021/04/08 03:44:51;;;;;;;9.83;7.65;;;;;;;0.68;77.34;98766.13;1607641;86;22420;-65
2021/04/08 03:47:19;;;;;;;15.88;8.00;;;;;;;0.74;77.35;98771.12;1634854;85;21171;-66
2021/04/08 03:49:49;;;;;;;9.68;7.72;;;;;;;0.80;77.33;98769.70;1642990;85;21608;-65
2021/04/08 03:52:18;;;;;;;13.08;7.80;;;;;;;0.85;77.35;98772.56;1638497;85;21232;-65
2021/04/08 03:54:51;;;;;;;9.78;7.10;;;;;;;0.91;77.38;98772.86;1638005;85;21688;-65
2021/04/08 03:57:22;;;;;;;9.73;7.55;;;;;;;0.97;77.34;98777.02;1639891;85;21224;-65
2021/04/08 03:59:50;;;;;;;13.48;6.87;;;;;;;0.99;77.31;98779.95;1637347;85;21701;-66
2021/04/08 04:02:19;;;;;;;10.53;7.78;;;;;;;1.03;77.46;98786.70;1638425;85;21041;-65
2021/04/08 04:04:47;;;;;;;10.95;6.35;;;;;;;1.07;77.46;98788.34;1639136;85;21581;-65
2021/04/08 04:07:15;;;;;;;11.68;7.42;;;;;;;1.13;77.47;98794.22;1641294;85;21424;-66
2021/04/08 04:09:43;;;;;;;11.83;7.53;;;;;;;1.17;77.47;98795.82;1631170;85;22489;-65
2021/04/08 04:12:14;;;;;;;9.18;7.15;;;;;;;1.21;77.57;98797.45;1642975;85;21270;-65
2021/04/08 04:14:44;;;;;;;10.40;6.85;;;;;;;1.26;77.54;98799.03;1626609;85;21218;-65
2021/04/08 04:17:31;;;;;;;10.88;7.87;;;;;;;1.29;77.53;98808.41;1639507;85;21208;-66
2021/04/08 04:20:00;;;;;;;11.12;8.18;;;;;;;1.32;77.51;98808.33;1637681;85;21187;-66
2021/04/08 04:22:27;;;;;;;10.18;7.12;;;;;;;1.35;77.59;98810.82;1640515;85;21802;-66
2021/04/08 04:24:55;;;;;;;12.78;9.00;;;;;;;1.38;77.72;98814.60;1638467;86;21119;-66
2021/04/08 04:27:22;;;;;;;12.45;9.78;;;;;;;1.40;77.70;98818.41;1663341;84;21200;-65
2021/04/08 04:29:49;;;;;;;15.72;8.05;;;;;;;1.42;77.69;98822.63;1662932;84;21203;-66
2021/04/08 04:32:17;;;;;;;11.38;8.05;;;;;;;1.47;77.80;98833.66;1664568;84;21215;-66
2021/04/08 04:34:45;;;;;;;13.70;7.62;;;;;;;1.51;77.76;98835.28;1664554;84;22276;-66
2021/04/08 04:37:13;;;;;;;10.55;7.83;;;;;;;1.59;77.86;98834.23;1665526;84;21598;-66
2021/04/08 04:39:41;;;;;;;12.88;8.45;;;;;;;1.63;77.80;98833.29;1639512;86;21250;-66
2021/04/08 04:42:08;;;;;;;11.57;7.65;;;;;;;1.68;77.86;98840.42;1663780;84;21236;-66
2021/04/08 04:44:38;;;;;;;12.85;7.20;;;;;;;1.77;77.83;98833.78;1665670;84;21227;-66
2021/04/08 04:47:08;;;;;;;16.32;7.37;;;;;;;1.86;77.84;98833.53;1665754;84;22132;-66
2021/04/08 04:49:36;;;;;;;13.20;6.60;;;;;;;1.95;77.83;98838.43;1667530;84;21167;-67
2021/04/08 04:52:06;;;;;;;14.10;7.70;;;;;;;2.03;77.80;98841.26;1664066;84;21235;-67
2021/04/08 04:54:34;;;;;;;16.35;7.08;;;;;;;2.09;77.82;98847.53;1664015;84;21215;-66
2021/04/08 04:57:01;;;;;;;9.78;6.97;;;;;;;2.13;77.73;98846.55;1664781;84;21171;-66
2021/04/08 04:59:28;;;;;;;9.83;7.05;;;;;;;2.16;77.74;98857.63;1665181;84;22616;-66
2021/04/08 05:01:55;;;;;;;13.88;6.85;;;;;;;2.20;77.77;98848.92;1666596;84;21326;-66
2021/04/08 05:04:23;;;;;;;8.60;7.10;;;;;;;2.26;77.86;98855.63;1666630;84;21307;-66
2021/04/08 05:06:50;;;;;;;14.78;7.70;;;;;;;2.34;77.81;98858.84;1666862;84;21227;-68
2021/04/08 05:09:17;;;;;;;11.40;6.95;;;;;;;2.39;77.87;98867.30;1668741;83;21266;-68
2021/04/08 05:11:45;;;;;;;10.15;6.22;;;;;;;2.49;77.87;98873.47;1662520;84;22108;-68
2021/04/08 05:14:12;;;;;;;9.45;6.35;;;;;;;2.61;77.91;98870.57;1666437;84;21360;-68
2021/04/08 05:16:39;;;;;;;9.20;5.60;;;;;;;2.75;77.85;98877.46;1662455;84;21139;-66
2021/04/08 05:19:06;;;;;;;9.05;6.30;;;;;;;2.87;77.88;98869.35;1666067;84;21216;-66
2021/04/08 05:21:33;;;;;;;10.43;5.97;;;;;;;2.99;77.75;98871.17;1663598;84;21200;-67
2021/04/08 05:24:00;;;;;;;10.10;6.03;;;;;;;3.08;77.75;98879.91;1664175;84;22385;-66
2021/04/08 05:26:27;;;;;;;11.05;5.92;;;;;;;3.21;77.67;98885.09;1663372;84;21170;-67
2021/04/08 05:28:54;;;;;;;6.83;5.55;;;;;;;3.36;77.76;98885.93;1665640;84;21558;-67
2021/04/08 05:31:21;;;;;;;11.35;6.33;;;;;;;3.63;77.80;98887.22;1666153;84;21179;-67
2021/04/08 05:33:50;;;;;;;10.35;6.17;;;;;;;3.95;77.84;98891.77;1666478;84;21189;-67
2021/04/08 05:36:17;;;;;;;8.50;5.30;;;;;;;4.31;77.81;98890.95;1661957;84;21314;-67
2021/04/08 05:38:45;;;;;;;9.80;5.42;;;;;;;4.48;77.25;98886.48;1669983;84;22022;-67
2021/04/08 05:41:13;;;;;;;9.80;4.92;;;;;;;4.63;77.14;98901.45;1667496;84;21191;-67
2021/04/08 05:43:43;;;;;;;8.63;5.15;;;;;;;4.68;76.99;98896.96;1665525;84;21164;-67
2021/04/08 05:46:10;;;;;;;8.65;5.05;;;;;;;4.87;77.23;98900.14;1664014;84;21251;-67
2021/04/08 05:48:37;;;;;;;6.67;4.30;;;;;;;4.99;76.58;98907.92;1665119;84;21219;-67
2021/04/08 05:51:05;;;;;;;6.33;4.60;;;;;;;4.98;76.77;98909.64;1663514;84;21256;-67
2021/04/08 05:53:33;;;;;;;7.05;4.42;;;;;;;5.14;76.90;98913.34;1662296;84;21020;-67
2021/04/08 05:56:01;;;;;;;7.65;4.70;;;;;;;5.31;76.53;98915.74;1658994;84;21240;-66
2021/04/08 05:58:28;;;;;;;8.10;4.67;;;;;;;5.28;76.61;98920.58;1661903;84;21696;-67
2021/04/08 06:00:56;;;;;;;6.85;4.40;;;;;;;5.24;76.43;98920.78;1661522;84;22618;-67
2021/04/08 06:03:24;;;;;;;;;;;;;;;5.08;76.43;98931.70;1662259;84;21173;-67
2021/04/08 06:05:53;;;;;;;8.28;4.33;;;;;;;4.89;76.04;98928.10;1614042;86;20246;-67
2021/04/08 06:08:20;;;;;;;10.68;4.42;;;;;;;4.68;76.49;98933.16;1651490;85;21206;-66
2021/04/08 06:10:47;;;;;;;8.95;4.83;;;;;;;4.57;76.57;98934.00;1628599;86;21489;-67
2021/04/08 06:13:19;;;;;;;10.32;5.08;;;;;;;4.53;76.64;98938.86;1635667;86;21237;-67
2021/04/08 06:15:46;;;;;;;9.30;3.65;;;;;;;4.51;76.84;98940.68;1651982;85;21194;-67
2021/04/08 06:18:13;;;;;;;9.48;4.22;;;;;;;4.41;76.56;98952.23;1648206;85;21168;-66
2021/04/08 06:20:40;;;;;;;6.17;4.12;;;;;;;4.39;76.57;98952.27;1630648;86;21711;-66
2021/04/08 06:23:07;;;;;;;7.03;3.75;;;;;;;4.40;76.85;98958.30;1636206;85;21641;-67
2021/04/08 06:25:35;;;;;;;5.37;3.27;;;;;;;4.52;76.89;98964.78;1662540;84;21994;-66
2021/04/08 06:28:03;;;;;;;8.23;3.22;;;;;;;4.74;77.01;98977.36;1662151;84;21510;-66
2021/04/08 06:30:30;;;;;;;11.25;3.42;;;;;;;4.81;76.37;98975.38;1660118;84;21200;-66
2021/04/08 06:32:58;;;;;;;8.03;4.00;;;;;;;4.77;76.28;98982.42;1658917;84;21248;-67
2021/04/08 06:35:25;;;;;;;11.45;4.75;;;;;;;4.81;76.30;98983.14;1659107;84;21222;-67
2021/04/08 06:37:52;;;;;;;4.65;3.45;;;;;;;4.86;76.38;98992.89;1662226;84;21218;-67
2021/04/08 06:40:22;;;;;;;10.90;3.62;;;;;;;4.86;75.77;98995.47;1662721;84;22380;-67
2021/04/08 06:42:53;;;;;;;8.38;4.03;;;;;;;4.66;75.91;98994.42;1668181;84;21232;-67
2021/04/08 06:45:24;;;;;;;8.33;3.00;;;;;;;4.59;75.78;99011.03;1662444;84;21328;-67
2021/04/08 06:48:09;;;;;;;7.37;3.52;;;;;;;4.58;76.10;99011.94;1664658;84;21227;-67
2021/04/08 06:50:40;;;;;;;6.95;3.50;;;;;;;4.78;76.56;99013.00;1663589;84;22117;-67
2021/04/08 06:53:09;;;;;;;5.33;3.50;;;;;;;5.02;76.89;99012.14;1661960;84;21282;-67
2021/04/08 06:55:37;;;;;;;5.80;3.15;;;;;;;5.41;76.71;99021.94;1631887;84;21687;-67
2021/04/08 06:58:05;;;;;;;7.12;3.80;;;;;;;5.50;75.82;99021.58;1661176;84;21241;-67
2021/04/08 07:00:33;;;;;;;7.12;3.37;;;;;;;5.48;75.72;99031.14;1658281;84;21189;-67
2021/04/08 07:03:03;;;;;;;8.60;3.95;;;;;;;5.60;76.11;99028.11;1662757;84;21695;-67
2021/04/08 07:05:30;;;;;;;6.70;3.02;;;;;;;5.77;75.94;99029.18;1665830;84;21245;-67
2021/04/08 07:07:58;;;;;;;4.53;2.90;;;;;;;5.71;75.44;99035.44;1665459;84;21594;-66
2021/04/08 07:10:26;;;;;;;5.97;3.05;;;;;;;5.59;75.52;99040.64;1663159;84;21254;-67
2021/04/08 07:12:56;;;;;;;5.37;3.50;;;;;;;5.57;75.36;99041.17;1671774;84;21173;-67
2021/04/08 07:15:29;;;;;;;5.55;3.17;;;;;;;5.57;75.88;99045.48;1665666;84;22198;-67
2021/04/08 07:18:01;;;;;;;8.48;3.37;;;;;;;5.71;75.79;99047.56;1663541;84;21271;-67
2021/04/08 07:20:28;;;;;;;8.05;2.80;;;;;;;5.80;75.66;99054.54;1664376;84;21662;-67
2021/04/08 07:23:07;;;;;;;;;;;;;;;5.84;75.22;99050.08;1666900;84;21230;-67
2021/04/08 07:25:35;;;;;;;7.53;3.75;;;;;;;5.87;75.30;99052.55;1648634;85;20502;-67
2021/04/08 07:28:32;;;;;;;5.20;2.92;;;;;;;5.81;75.43;99065.73;1634243;86;21262;-66
2021/04/08 07:31:21;;;;;;;6.72;2.92;;;;;;;5.85;75.16;99066.00;1637543;86;21169;-66
2021/04/08 07:33:51;;;;;;;6.05;3.02;;;;;;;5.80;75.25;99073.13;1650319;85;21159;-67
2021/04/08 07:36:35;;;;;;;5.95;3.10;;;;;;;5.81;74.99;99069.63;1652839;85;21199;-66
2021/04/08 07:39:16;;;;;;;9.40;3.17;;;;;;;5.90;75.28;99071.86;1648141;85;21183;-67
2021/04/08 07:42:00;;;;;;;8.35;3.17;;;;;;;6.07;74.88;99083.36;1650228;85;21429;-67
2021/04/08 07:44:28;;;;;;;9.08;3.55;;;;;;;5.99;74.35;99084.52;1627427;86;21673;-67
2021/04/08 07:46:55;;;;;;;5.70;3.27;;;;;;;6.09;74.84;99092.76;1651809;85;24587;-67
2021/04/08 07:49:34;;;;;;;7.35;3.85;;;;;;;6.12;73.96;99091.80;1655251;85;21211;-67
2021/04/08 07:52:24;;;;;;;14.75;3.90;;;;;;;6.09;74.74;99100.99;1648026;85;21219;-67
2021/04/08 07:55:19;;;;;;;12.95;4.90;;;;;;;6.18;74.63;99099.33;1636394;86;22070;-66
2021/04/08 07:58:08;;;;;;;10.20;4.03;;;;;;;6.35;74.97;99102.09;1667765;84;21224;-67
2021/04/08 08:00:52;;;;;;;5.25;2.92;;;;;;;6.49;74.18;99101.08;1663608;84;21247;-67
2021/04/08 08:03:27;;;;;;;5.20;2.95;;;;;;;6.73;74.84;99104.89;1665952;84;21196;-66
2021/04/08 08:05:59;;;;;;;4.90;2.70;;;;;;;7.15;73.33;99108.72;1661896;84;21210;-67
2021/04/08 08:08:44;;;;;;;6.87;2.35;;;;;;;7.32;74.06;99114.48;1661170;84;21217;-67
2021/04/08 08:11:15;;;;;;;7.05;2.72;;;;;;;7.50;74.39;99111.98;1660912;84;21215;-67
2021/04/08 08:13:54;;;;;;;8.85;2.62;;;;;;;7.91;74.30;99117.08;1630328;86;21242;-67
2021/04/08 08:16:28;;;;;;;6.05;2.62;;;;;;;8.42;74.89;99116.87;1667884;84;21204;-67
2021/04/08 08:18:57;;;;;;;6.58;3.58;;;;;;;8.90;72.10;99121.88;1660577;84;21670;-67
2021/04/08 08:21:39;;;;;;;9.98;3.67;;;;;;;8.73;73.17;99127.92;1659074;84;22272;-67
2021/04/08 08:24:10;;;;;;;8.93;3.58;;;;;;;8.58;73.01;99125.63;1663311;84;21191;-67
2021/04/08 08:26:49;;;;;;;6.72;3.35;;;;;;;8.43;72.74;99138.05;1664288;84;21239;-67
2021/04/08 08:29:29;;;;;;;8.45;3.08;;;;;;;8.15;71.34;99147.16;1660074;84;21195;-68
2021/04/08 08:32:04;;;;;;;4.40;2.47;;;;;;;7.65;71.66;99145.09;1663772;84;21169;-68
2021/04/08 08:34:35;;;;;;;6.20;2.52;;;;;;;7.52;72.04;99151.73;1665283;84;22139;-67
2021/04/08 08:37:13;;;;;;;4.85;2.50;;;;;;;7.63;73.13;99152.11;1662874;84;21234;-67
2021/04/08 08:39:48;;;;;;;6.60;2.37;;;;;;;8.01;73.62;99149.52;1648090;85;21163;-68
2021/04/08 08:42:19;;;;;;;4.17;2.30;;;;;;;8.37;73.23;99156.53;1693445;83;21310;-67
2021/04/08 08:44:47;;;;;;;6.05;2.50;;;;;;;8.36;72.40;99157.45;1699662;83;21585;-68
2021/04/08 08:47:30;;;;;;;5.85;2.37;;;;;;;8.20;71.87;99162.06;1696013;83;21272;-67
2021/04/08 08:50:15;;;;;;;6.10;2.15;;;;;;;8.06;72.14;99167.89;1698433;83;21250;-67
2021/04/08 08:52:49;;;;;;;4.97;3.10;;;;;;;8.11;72.40;99166.39;1681751;83;21193;-67
2021/04/08 08:55:20;;;;;;;5.40;1.90;;;;;;;8.24;72.55;99164.92;1696715;83;21252;-68
2021/04/08 08:57:56;;;;;;;8.55;2.08;;;;;;;8.28;71.94;99171.65;1700083;83;21678;-67
2021/04/08 09:00:28;;;;;;;7.10;2.37;;;;;;;8.26;71.89;99174.80;1693450;82;21375;-68
2021/04/08 09:02:56;;;;;;;5.45;2.40;;;;;;;8.31;71.15;99177.17;1693542;83;21310;-67
2021/04/08 09:05:30;;;;;;;7.80;2.70;;;;;;;8.21;71.78;99174.16;1695705;82;21088;-67
2021/04/08 09:08:02;;;;;;;5.85;2.20;;;;;;;8.35;71.53;99187.00;1689565;82;21211;-67
2021/04/08 09:10:34;;;;;;;10.75;2.75;;;;;;;8.43;71.71;99179.68;1692328;82;21190;-67
2021/04/08 09:13:01;;;;;;;5.83;2.50;;;;;;;8.55;71.61;99188.23;1644261;86;21206;-66
2021/04/08 09:15:28;;;;;;;5.10;2.50;;;;;;;8.84;71.89;99192.48;1646199;86;21226;-67
2021/04/08 09:18:05;;;;;;;4.10;2.20;;;;;;;9.13;69.92;99186.70;1648875;85;21701;-67
2021/04/08 09:20:33;;;;;;;7.12;3.47;;;;;;;9.18;71.05;99191.66;1649445;85;21178;-68
2021/04/08 09:23:08;;;;;;;6.08;2.70;;;;;;;9.35;71.16;99193.41;1648110;85;21199;-68
2021/04/08 09:25:56;;;;;;;5.85;2.55;;;;;;;9.52;70.87;99195.16;1646324;85;22267;-67
2021/04/08 09:28:30;;;;;;;2.95;1.77;;;;;;;9.46;69.66;99198.92;1691475;83;21108;-67
2021/04/08 09:33:45;;;;;;;5.75;2.12;;;;;;;9.24;69.91;99195.72;1690881;83;21084;-67
2021/04/08 09:36:24;;;;;;;6.42;1.77;;;;;;;9.05;69.86;99208.37;1687450;83;21661;-67
2021/04/08 09:39:03;;;;;;;7.40;2.70;;;;;;;8.85;69.06;99210.65;1692105;83;21287;-67
2021/04/08 09:42:01;;;;;;;4.95;2.50;;;;;;;8.54;69.01;99213.84;1696511;83;21724;-67
2021/04/08 09:44:27;;;;;;;4.70;2.15;;;;;;;8.49;69.30;99209.34;1697472;83;21206;-68
2021/04/08 09:46:58;;;;;;;5.47;2.42;;;;;;;8.26;68.91;99220.32;1697307;83;21135;-67
2021/04/08 09:49:43;;;;;;;5.22;2.37;;;;;;;8.00;67.83;99218.03;1699821;83;22023;-67
2021/04/08 09:52:12;;;;;;;7.15;2.05;;;;;;;7.74;68.67;99223.94;1700894;83;22384;-67
2021/04/08 09:54:42;;;;;;;5.62;2.00;;;;;;;7.73;69.27;99222.26;1697569;83;21262;-67
2021/04/08 09:57:11;;;;;;;4.67;1.42;;;;;;;7.75;69.00;99228.67;1691901;83;21190;-67
2021/04/08 09:59:59;;;;;;;3.72;1.47;;;;;;;7.94;69.35;99231.31;1695848;83;21668;-67
2021/04/08 10:02:27;;;;;;;5.05;1.90;;;;;;;8.12;67.31;99239.58;1692171;83;21201;-67
2021/04/08 10:05:12;;;;;;;5.03;1.90;;;;;;;8.12;68.71;99238.27;1691631;83;22197;-67
2021/04/08 10:07:54;;;;;;;4.50;1.92;;;;;;;8.20;68.24;99243.98;1691133;83;21696;-67
2021/04/08 10:10:37;;;;;;;4.97;2.00;;;;;;;8.35;68.55;99244.23;1691268;83;21195;-67
2021/04/08 10:13:29;;;;;;;3.35;1.70;;;;;;;8.58;68.93;99244.02;1692106;83;21265;-67
2021/04/08 10:15:59;;;;;;;4.92;1.72;;;;;;;8.79;68.63;99243.92;1691767;83;21203;-67
2021/04/08 10:18:31;;;;;;;2.87;1.50;;;;;;;9.10;68.62;99238.95;1695775;83;21407;-67
2021/04/08 10:21:01;;;;;;;3.85;1.70;;;;;;;9.28;68.03;99241.09;1692434;83;21235;-67
2021/04/08 10:23:37;;;;;;;3.75;1.30;;;;;;;9.51;67.92;99237.33;1671256;83;21195;-67
2021/04/08 10:26:11;;;;;;;4.10;1.37;;;;;;;9.73;68.13;99236.24;1693741;83;21162;-66
2021/04/08 10:28:42;;;;;;;4.15;1.40;;;;;;;9.81;67.18;99236.69;1693523;83;21210;-67
2021/04/08 10:31:24;;;;;;;19.05;3.37;;;;;;;9.52;67.02;99239.03;1658813;85;21285;-67
2021/04/08 10:34:06;;;;;;;5.95;1.82;;;;;;;9.64;67.28;99242.31;1628552;86;21250;-67
2021/04/08 10:36:41;;;;;;;3.60;1.70;;;;;;;9.83;67.43;99236.13;1652199;84;21212;-67
2021/04/08 10:39:19;;;;;;;4.17;1.77;;;;;;;10.07;67.39;99251.80;1627880;86;21265;-67
2021/04/08 10:42:08;;;;;;;8.05;2.22;;;;;;;10.35;67.05;99256.90;1635904;86;21189;-67
2021/04/08 10:44:48;;;;;;;4.35;1.57;;;;;;;10.26;66.30;99258.67;1621003;86;21446;-67
2021/04/08 10:47:22;;;;;;;11.33;2.02;;;;;;;9.86;65.80;99252.95;1637148;86;21113;-68
2021/04/08 10:49:57;;;;;;;3.20;1.30;;;;;;;9.50;65.98;99263.02;1655974;84;21753;-67
2021/04/08 10:52:36;;;;;;;3.80;1.25;;;;;;;9.26;65.33;99279.86;1644558;85;21610;-67
2021/04/08 10:55:11;;;;;;;3.33;1.07;;;;;;;8.88;64.67;99272.98;1650690;85;21161;-67
2021/04/08 10:57:41;;;;;;;2.55;1.00;;;;;;;8.50;64.77;99279.96;1651305;85;21993;-67
2021/04/08 11:00:11;;;;;;;3.75;2.17;;;;;;;8.25;65.18;99273.23;1654137;84;21593;-66
2021/04/08 11:02:42;;;;;;;4.75;1.12;;;;;;;8.32;66.00;99280.75;1652146;85;21182;-66
2021/04/08 11:05:25;;;;;;;7.03;1.50;;;;;;;8.47;65.08;99290.52;1656624;84;21211;-66
2021/04/08 11:07:58;;;;;;;5.65;1.60;;;;;;;8.51;65.64;99277.73;1654614;85;21290;-67
2021/04/08 11:10:31;;;;;;;4.37;1.25;;;;;;;8.61;65.89;99282.92;1654076;85;22372;-67
2021/04/08 11:13:00;;;;;;;2.37;1.17;;;;;;;8.79;65.47;99282.97;1654613;85;21253;-67
2021/04/08 11:15:31;;;;;;;5.67;1.70;;;;;;;8.93;65.55;99280.55;1657027;85;21206;-67
2021/04/08 11:18:15;;;;;;;3.92;1.52;;;;;;;9.01;64.85;99278.43;1654340;85;21155;-66
2021/04/08 11:20:48;;;;;;;5.08;1.95;;;;;;;8.97;64.89;99297.73;1656634;85;21621;-68
2021/04/08 11:23:20;;;;;;;4.12;1.50;;;;;;;8.83;64.29;99298.38;1629301;86;21233;-67
2021/04/08 11:26:06;;;;;;;4.78;1.52;;;;;;;8.69;61.50;99299.02;1636642;86;21244;-67
2021/04/08 11:31:17;;;;;;;7.33;2.15;;;;;;;8.71;64.25;99306.31;1835866;76;23302;-66
2021/04/08 11:33:45;;;;;;;2.50;1.20;;;;;;;8.64;64.32;99307.49;1806136;77;20930;-66
2021/04/08 11:36:21;;;;;;;3.35;1.55;;;;;;;8.55;64.16;99310.98;1809552;79;24402;-66
2021/04/08 11:38:48;;;;;;;4.22;1.12;;;;;;;8.33;61.61;99313.67;1808390;77;21113;-67
2021/04/08 11:41:15;;;;;;;;;;;;;;;7.99;62.52;99324.25;1806255;77;21019;-67
2021/04/08 11:43:52;;;;;;;4.30;1.65;;;;;;;7.78;63.52;99317.73;1808073;79;20539;-67
2021/04/08 11:46:30;;;;;;;;;;;;;;;7.81;63.84;99328.03;1747855;80;21060;-67
2021/04/08 11:48:59;;;;;;;;;;;;;;;7.80;63.32;99326.32;1746053;80;22395;-67
2021/04/08 11:51:30;;;;;;;4.87;1.67;;;;;;;7.89;63.16;99329.45;1745880;81;20213;-67
2021/04/08 11:54:16;;;;;;;3.62;0.98;;;;;;;7.98;63.33;99323.84;1739935;80;21601;-67
2021/04/08 11:56:44;;;;;;;4.17;1.60;;;;;;;7.87;61.67;99329.53;1744202;80;21203;-67
2021/04/08 11:59:21;;;;;;;2.92;1.32;;;;;;;7.75;61.67;99328.27;1743826;80;21147;-67
2021/04/08 12:01:54;;;;;;;5.05;1.60;;;;;;;7.72;62.56;99329.70;1751189;80;21634;-67
2021/04/08 12:04:24;;;;;;;5.28;1.47;;;;;;;7.74;62.77;99332.24;1749766;80;21162;-67
2021/04/08 12:07:06;;;;;;;9.80;1.65;;;;;;;7.77;63.17;99331.66;1755012;80;21150;-67
2021/04/08 12:09:43;;;;;;;6.60;1.47;;;;;;;7.83;63.12;99339.19;1753243;80;21101;-67